ADDS METAR Data INFO
IDs: Format: Raw Decoded Include TAF

Data at: 0116 UTC 21 Oct 2017

KMXO 210055Z AUTO 16011KT 7SM CLR 20/07 A2993 RMK AO2
KMXO 210035Z AUTO 15009KT 9SM CLR 20/07 A2992 RMK AO2
KMXO 210015Z AUTO 14009KT 10SM CLR 19/07 A2993 RMK AO2
KMXO 202355Z AUTO 15009KT 10SM CLR 20/07 A2993 RMK AO2
KMXO 202335Z AUTO 16011G17KT 10SM CLR 21/06 A2993 RMK AO2
KMXO 202315Z AUTO 16012G17KT 10SM CLR 21/06 A2992 RMK AO2
KMXO 202255Z AUTO 15009G15KT 10SM CLR 22/06 A2992 RMK AO2
KMXO 202235Z AUTO 16010G16KT 10SM CLR 23/06 A2992 RMK AO2
KMXO 202215Z AUTO 17012G19KT 10SM CLR 24/06 A2993 RMK AO2
KMXO 202155Z AUTO 17013G20KT 10SM CLR 24/07 A2994 RMK AO2
KMXO 202135Z AUTO 16016KT 10SM CLR 24/07 A2995 RMK AO2
KMXO 202115Z AUTO 16016G22KT 10SM CLR 24/07 A2995 RMK AO2
KMXO 202055Z AUTO 17016G22KT 10SM CLR 25/08 A2996 RMK AO2
KMXO 202035Z AUTO 17014G20KT 10SM CLR 25/09 A2996 RMK AO2
KMXO 202015Z AUTO 16014G20KT 10SM CLR 23/09 A2996 RMK AO2
KMXO 201955Z AUTO 16012G18KT 10SM CLR 24/10 A2997 RMK AO2
KMXO 201935Z AUTO 16012G19KT 10SM CLR 24/10 A2997 RMK AO2
KMXO 201915Z AUTO 16012G18KT 10SM CLR 24/10 A2999 RMK AO2
KMXO 201855Z AUTO 15013KT 10SM CLR 24/10 A2999 RMK AO2
KMXO 201835Z AUTO 15012KT 10SM CLR 24/10 A3001 RMK AO2
KMXO 201815Z AUTO 18012G19KT 10SM CLR 24/10 A3002 RMK AO2
KMXO 201755Z AUTO 18010G16KT 10SM CLR 23/11 A3003 RMK AO2
KMXO 201735Z AUTO 17010KT 10SM CLR 23/11 A3004 RMK AO2
KMXO 201715Z AUTO 17011KT 10SM CLR 23/11 A3006 RMK AO2
KMXO 201655Z AUTO 19008G15KT 10SM CLR 22/11 A3006 RMK AO2
KMXO 201635Z AUTO 19008KT 10SM CLR 21/12 A3007 RMK AO2
KMXO 201615Z AUTO 18011KT 10SM CLR 21/12 A3008 RMK AO2
KMXO 201555Z AUTO 20009KT 10SM CLR 20/12 A3009 RMK AO2
KMXO 201535Z AUTO 20009KT 10SM CLR 19/12 A3009 RMK AO2
KMXO 201515Z AUTO 18011KT 10SM CLR 18/12 A3010 RMK AO2
KMXO 201455Z AUTO 18009KT 10SM CLR 17/12 A3010 RMK AO2
KMXO 201435Z AUTO 18009KT 10SM CLR 16/11 A3010 RMK AO2
KMXO 201415Z AUTO 18006KT 10SM CLR 15/11 A3010 RMK AO2
KMXO 201355Z AUTO 18008KT 10SM CLR 14/11 A3010 RMK AO2
KMXO 201335Z AUTO 17004KT 10SM CLR 12/10 A3010 RMK AO2
KMXO 201315Z AUTO 14003KT 10SM CLR 11/09 A3009 RMK AO2
KMXO 201255Z AUTO 15003KT 10SM CLR 09/08 A3009 RMK AO2
KMXO 201235Z AUTO 15004KT 10SM CLR 09/08 A3009 RMK AO2
KMXO 201215Z AUTO 14004KT 10SM CLR 09/09 A3008 RMK AO2
KMXO 201155Z AUTO 14004KT 10SM CLR 09/08 A3009 RMK AO2
KMXO 201135Z AUTO 13003KT 10SM CLR 09/08 A3008 RMK AO2
KMXO 201115Z AUTO 14004KT 10SM CLR 09/08 A3008 RMK AO2
KMXO 201055Z AUTO 15004KT 10SM CLR 09/08 A3008 RMK AO2
KMXO 201035Z AUTO 15004KT 10SM CLR 11/09 A3008 RMK AO2
KMXO 201015Z AUTO 15006KT 10SM CLR 11/09 A3008 RMK AO2
KMXO 200955Z AUTO 15005KT 10SM CLR 11/09 A3008 RMK AO2
KMXO 200935Z AUTO 15007KT 10SM CLR 11/09 A3007 RMK AO2
KMXO 200915Z AUTO 15004KT 10SM CLR 12/10 A3007 RMK AO2
KMXO 200855Z AUTO 15004KT 10SM CLR 11/10 A3007 RMK AO2
KMXO 200835Z AUTO 15005KT 10SM CLR 12/10 A3007 RMK AO2
KMXO 200815Z AUTO 15005KT 10SM CLR 12/10 A3007 RMK AO2
KMXO 200755Z AUTO 14005KT 10SM CLR 12/10 A3007 RMK AO2
KMXO 200735Z AUTO 15006KT 10SM CLR 12/10 A3007 RMK AO2
KMXO 200715Z AUTO 15005KT 10SM CLR 13/10 A3007 RMK AO2
KMXO 200655Z AUTO 15006KT 10SM CLR 12/10 A3007 RMK AO2
KMXO 200635Z AUTO 15004KT 10SM CLR 12/10 A3007 RMK AO2
KMXO 200615Z AUTO 16005KT 10SM CLR 11/09 A3007 RMK AO2
KMXO 200555Z AUTO 15005KT 10SM CLR 10/09 A3007 RMK AO2
KMXO 200535Z AUTO 00000KT 10SM CLR 11/09 A3007 RMK AO2
KMXO 200515Z AUTO 14003KT 10SM CLR 12/09 A3007 RMK AO2
KMXO 200455Z AUTO 00000KT 10SM CLR 12/09 A3007 RMK AO2
KMXO 200435Z AUTO 14003KT 10SM CLR 12/09 A3008 RMK AO2
KMXO 200415Z AUTO 14003KT 10SM CLR 13/09 A3007 RMK AO2
KMXO 200355Z AUTO 14005KT 10SM CLR 14/09 A3007 RMK AO2
KMXO 200335Z AUTO 14005KT 10SM CLR 14/09 A3007 RMK AO2
KMXO 200315Z AUTO 14005KT 10SM CLR 14/08 A3007 RMK AO2
KMXO 200255Z AUTO 14005KT 10SM CLR 14/08 A3008 RMK AO2
KMXO 200235Z AUTO 14006KT 10SM CLR 14/07 A3007 RMK AO2
KMXO 200215Z AUTO 13006KT 10SM CLR 15/06 A3007 RMK AO2
KMXO 200155Z AUTO 14006KT 10SM CLR 15/06 A3007 RMK AO2
KMXO 200135Z AUTO 14007KT 10SM CLR 15/05 A3008 RMK AO2
KMXO 200115Z AUTO 13006KT 10SM CLR 16/05 A3008 RMK AO2
KMXO 200055Z AUTO 13007KT 10SM CLR 15/05 A3009 RMK AO2
KMXO 200035Z AUTO 12004KT 10SM CLR 16/05 A3009 RMK AO2
KMXO 200015Z AUTO 13004KT 10SM CLR 16/05 A3009 RMK AO2
KMXO 192355Z AUTO 12006KT 10SM CLR 16/05 A3009 RMK AO2
KMXO 192335Z AUTO 12006KT 10SM CLR 17/05 A3009 RMK AO2
KMXO 192315Z AUTO 13006KT 10SM CLR 18/05 A3009 RMK AO2
KMXO 192255Z AUTO 13006KT 10SM CLR 20/04 A3009 RMK AO2
KMXO 192235Z AUTO 13007KT 10SM CLR 21/04 A3009 RMK AO2
KMXO 192215Z AUTO 13008G13KT 10SM CLR 21/03 A3009 RMK AO2
KMXO 192155Z AUTO 13009G14KT 10SM CLR 22/02 A3009 RMK AO2
KMXO 192135Z AUTO 13010KT 10SM CLR 22/01 A3009 RMK AO2
KMXO 192115Z AUTO 14007KT 10SM CLR 22/01 A3010 RMK AO2
KMXO 192055Z AUTO 16009KT 10SM CLR 22/M00 A3010 RMK AO2
KMXO 192035Z AUTO 14012KT 10SM CLR 23/M01 A3010 RMK AO2
KMXO 192015Z AUTO 15011KT 10SM CLR 23/M02 A3011 RMK AO2
KMXO 191955Z AUTO 15011G18KT 10SM CLR 23/M02 A3011 RMK AO2
KMXO 191935Z AUTO 12011KT 10SM CLR 23/M01 A3011 RMK AO2
KMXO 191915Z AUTO 15005G13KT 10SM CLR 22/M00 A3012 RMK AO2
KMXO 191855Z AUTO 14010KT 10SM CLR 22/M01 A3013 RMK AO2
KMXO 191835Z AUTO 12010KT 10SM CLR 21/M02 A3014 RMK AO2
KMXO 191815Z AUTO 12007G15KT 10SM CLR 21/M01 A3014 RMK AO2
KMXO 191755Z AUTO 12007G13KT 10SM CLR 21/M01 A3015 RMK AO2
KMXO 191735Z AUTO 10008G14KT 10SM CLR 20/M02 A3016 RMK AO2
KMXO 191715Z AUTO 13006KT 10SM CLR 20/M01 A3017 RMK AO2
KMXO 191655Z AUTO 11008KT 10SM CLR 20/M02 A3017 RMK AO2
KMXO 191635Z AUTO 10010KT 10SM CLR 19/M01 A3017 RMK AO2
KMXO 191615Z AUTO 11008KT 10SM CLR 18/M02 A3017 RMK AO2
KMXO 191555Z AUTO 10010KT 10SM CLR 18/M02 A3018 RMK AO2
KMXO 191535Z AUTO 11010KT 10SM CLR 17/M01 A3017 RMK AO2
KMXO 191515Z AUTO 11009KT 10SM CLR 17/M01 A3017 RMK AO2
KMXO 191455Z AUTO 00000KT 10SM CLR 15/06 A3016 RMK AO2
KMXO 191435Z AUTO 18003KT 10SM CLR 12/07 A3016 RMK AO2
KMXO 191415Z AUTO 00000KT 10SM CLR 09/08 A3015 RMK AO2
KMXO 191355Z AUTO 00000KT 10SM CLR 07/07 A3015 RMK AO2
KMXO 191335Z AUTO 00000KT 10SM CLR 06/06 A3014 RMK AO2